Time;durP1;ratioP1;P1;durP2;ratioP2;P2;SDS_P1;SDS_P2;PMS_P1;PMS_P2;Temp;Humidity;BMP_temperature;BMP_pressure;BME280_temperature;BME280_humidity;BME280_pressure;Samples;Min_cycle;Max_cycle;Signal;HPM_P1;HPM_P2
2023/02/08 00:01:50;;;;;;;41.73;20.30;;;-2.60;99.90;;;;;;4955038;29;20297;-88
2023/02/08 00:04:16;;;;;;;43.90;20.73;;;-2.70;99.90;;;;;;4939987;29;20185;-88
2023/02/08 00:06:42;;;;;;;42.97;20.80;;;-2.70;99.90;;;;;;4938527;29;20195;-87
2023/02/08 00:09:07;;;;;;;43.70;21.27;;;-2.70;99.90;;;;;;4954715;28;20188;-87
2023/02/08 00:11:34;;;;;;;49.63;22.30;;;-2.70;99.90;;;;;;4934552;29;20269;-88
2023/02/08 00:13:59;;;;;;;45.03;21.57;;;-2.80;99.90;;;;;;4920908;29;20236;-87
2023/02/08 00:16:25;;;;;;;44.13;21.77;;;-2.80;99.90;;;;;;4920674;29;20177;-86
2023/02/08 00:18:50;;;;;;;46.57;22.07;;;-2.90;99.90;;;;;;4920656;29;20242;-87
2023/02/08 00:21:17;;;;;;;43.80;21.60;;;-2.90;99.90;;;;;;4920582;29;20178;-87
2023/02/08 00:23:43;;;;;;;52.27;23.97;;;-2.90;99.90;;;;;;4920422;29;20229;-88
2023/02/08 00:26:09;;;;;;;45.90;21.50;;;-2.90;99.90;;;;;;4920757;29;20201;-88
2023/02/08 00:28:35;;;;;;;52.57;24.13;;;-2.80;99.90;;;;;;4920181;29;20188;-87
2023/02/08 00:31:01;;;;;;;52.03;23.87;;;-2.90;99.90;;;;;;4935100;29;20185;-88
2023/02/08 00:33:27;;;;;;;51.97;23.23;;;-2.80;99.90;;;;;;4934995;29;20671;-87
2023/02/08 00:36:00;;;;;;;50.50;23.30;;;-2.80;99.90;;;;;;4919293;29;20523;-88
2023/02/08 00:38:26;;;;;;;53.17;23.70;;;-2.90;99.90;;;;;;4935245;29;20192;-87
2023/02/08 00:40:52;;;;;;;53.00;24.93;;;-2.80;99.90;;;;;;4934946;29;20185;-87
2023/02/08 00:43:18;;;;;;;54.10;25.27;;;-2.80;99.90;;;;;;4938411;29;20196;-87
2023/02/08 00:45:43;;;;;;;50.93;23.93;;;-2.80;99.90;;;;;;4939166;29;20185;-89
2023/02/08 00:48:09;;;;;;;54.47;25.63;;;-2.80;99.90;;;;;;4939377;29;20175;-88
2023/02/08 00:50:35;;;;;;;49.20;23.27;;;-2.80;99.90;;;;;;4937745;29;20199;-88
2023/02/08 00:53:00;;;;;;;51.33;24.77;;;-2.90;99.90;;;;;;4939104;29;20664;-87
2023/02/08 00:55:26;;;;;;;56.13;24.63;;;-2.90;99.90;;;;;;4939067;29;20184;-87
2023/02/08 00:57:52;;;;;;;48.90;23.67;;;-2.90;99.90;;;;;;4937450;29;20215;-86
2023/02/08 01:00:18;;;;;;;48.90;23.70;;;-2.90;99.90;;;;;;4937550;29;20177;-88
2023/02/08 01:02:43;;;;;;;49.47;24.63;;;-3.00;99.90;;;;;;4938750;29;20190;-87
2023/02/08 01:05:09;;;;;;;57.73;25.57;;;-2.90;99.90;;;;;;4938582;29;20174;-87
2023/02/08 01:07:37;;;;;;;58.23;25.47;;;-3.00;99.90;;;;;;4953472;28;20249;-86
2023/02/08 01:10:05;;;;;;;54.40;24.97;;;-2.90;99.90;;;;;;4937270;29;20195;-86
2023/02/08 01:12:31;;;;;;;55.90;23.37;;;-3.00;99.90;;;;;;4937371;29;20208;-88
2023/02/08 01:14:56;;;;;;;53.60;23.90;;;-3.00;99.90;;;;;;4937635;29;20500;-88
2023/02/08 01:17:22;;;;;;;50.37;23.83;;;-3.00;99.90;;;;;;4937464;29;20179;-87
2023/02/08 01:19:48;;;;;;;56.87;24.43;;;-3.00;99.90;;;;;;4938673;29;20252;-87
2023/02/08 01:22:13;;;;;;;50.80;22.93;;;-3.00;99.90;;;;;;4938727;29;20229;-88
2023/02/08 01:24:39;;;;;;;53.10;24.07;;;-3.10;99.90;;;;;;4937491;29;20235;-88
2023/02/08 01:27:05;;;;;;;51.23;23.87;;;-3.20;99.90;;;;;;4938093;29;20179;-88
2023/02/08 01:29:30;;;;;;;52.30;24.33;;;-3.20;99.90;;;;;;4936935;29;20602;-87
2023/02/08 01:31:56;;;;;;;51.27;23.87;;;-3.20;99.90;;;;;;4938319;29;20231;-87
2023/02/08 01:34:22;;;;;;;49.43;23.53;;;-3.20;99.90;;;;;;4937383;29;20185;-88
2023/02/08 01:36:47;;;;;;;54.47;23.50;;;-3.20;99.90;;;;;;4938584;29;20176;-87
2023/02/08 01:39:13;;;;;;;50.10;23.67;;;-3.10;99.90;;;;;;4938381;29;20185;-88
2023/02/08 01:41:43;;;;;;;52.87;22.40;;;-3.10;99.90;;;;;;4936985;29;20189;-87
2023/02/08 01:44:12;;;;;;;43.73;21.43;;;-3.10;99.90;;;;;;4953022;29;20246;-88
2023/02/08 01:46:47;;;;;;;46.23;21.73;;;-3.10;99.90;;;;;;4938231;29;20214;-87
2023/02/08 01:49:25;;;;;;;52.13;24.10;;;-3.10;99.90;;;;;;4938047;29;20182;-87
2023/02/08 01:52:19;;;;;;;49.03;23.43;;;-3.10;99.90;;;;;;4952912;29;20260;-88
2023/02/08 01:55:02;;;;;;;43.90;21.93;;;-3.10;99.90;;;;;;4936422;29;20182;-87
2023/02/08 01:57:29;;;;;;;51.40;22.60;;;-3.20;99.90;;;;;;4936737;29;20507;-88
2023/02/08 02:00:08;;;;;;;45.20;22.17;;;-3.20;99.90;;;;;;4937768;29;20573;-87
2023/02/08 02:02:37;;;;;;;49.13;22.47;;;-3.30;99.90;;;;;;4937908;29;20171;-87
2023/02/08 02:05:03;;;;;;;53.43;22.17;;;-3.20;99.90;;;;;;4937851;29;20191;-86
2023/02/08 02:07:29;;;;;;;46.47;22.17;;;-3.10;99.90;;;;;;4952621;29;20248;-87
2023/02/08 02:10:05;;;;;;;47.70;22.23;;;-3.00;99.90;;;;;;4937844;29;20273;-88
2023/02/08 02:12:31;;;;;;;47.20;21.60;;;-3.10;99.90;;;;;;4952118;29;20221;-87
2023/02/08 02:14:58;;;;;;;47.50;21.97;;;-3.00;99.90;;;;;;4937630;29;20487;-88
2023/02/08 02:17:24;;;;;;;46.67;22.60;;;-3.10;99.90;;;;;;4936516;29;20187;-87
2023/02/08 02:19:59;;;;;;;49.63;22.23;;;-3.10;99.90;;;;;;4937207;29;20175;-87
2023/02/08 02:22:30;;;;;;;51.73;23.07;;;-3.20;99.90;;;;;;4937469;29;20176;-88
2023/02/08 02:25:42;;;;;;;50.07;22.53;;;-3.10;99.90;;;;;;4951865;29;20239;-88
2023/02/08 02:28:16;;;;;;;45.07;21.20;;;-3.20;99.90;;;;;;4937214;29;20179;-86
2023/02/08 02:31:28;;;;;;;50.37;22.83;;;-3.30;99.90;;;;;;4952205;29;20618;-87
2023/02/08 02:34:01;;;;;;;48.90;22.40;;;-3.30;99.90;;;;;;4952082;28;20332;-87
2023/02/08 02:36:48;;;;;;;53.97;22.53;;;-3.30;99.90;;;;;;4937135;29;20179;-89
2023/02/08 02:39:33;;;;;;;53.90;23.40;;;-3.40;99.90;;;;;;4937215;29;20188;-87
2023/02/08 02:45:35;;;;;;;51.33;23.13;;;-3.30;99.90;;;;;;4937543;29;20180;-88
2023/02/08 02:48:08;;;;;;;49.87;23.73;;;-3.40;99.90;;;;;;4937103;29;20208;-87
2023/02/08 02:50:42;;;;;;;55.80;25.77;;;-3.40;99.90;;;;;;4951660;29;20649;-86
2023/02/08 02:53:23;;;;;;;51.77;24.50;;;-3.50;99.90;;;;;;4951949;29;20885;-87
2023/02/08 02:56:09;;;;;;;59.57;23.80;;;-3.50;99.90;;;;;;4951917;28;20592;-87
2023/02/08 03:01:28;;;;;;;51.13;24.90;;;-3.50;99.90;;;;;;5235301;23;20246;-85
2023/02/08 03:03:55;;;;;;;53.63;23.50;;;-3.50;99.90;;;;;;4973560;28;20664;-87
2023/02/08 03:06:54;;;;;;;58.00;25.07;;;-3.60;99.90;;;;;;4973740;28;20669;-87
2023/02/08 03:09:41;;;;;;;52.27;23.20;;;-3.50;99.90;;;;;;4974058;28;20177;-86
2023/02/08 03:12:39;;;;;;;48.53;22.67;;;-3.60;99.90;;;;;;4974355;28;20297;-86
2023/02/08 03:15:28;;;;;;;46.83;23.73;;;-3.60;99.90;;;;;;4974587;28;20168;-87
2023/02/08 03:17:54;;;;;;;57.67;25.10;;;-3.60;99.90;;;;;;4974206;28;20203;-86
2023/02/08 03:20:29;;;;;;;54.60;24.00;;;-3.60;99.90;;;;;;4974343;28;20181;-86
2023/02/08 03:23:01;;;;;;;51.47;23.20;;;-3.60;99.90;;;;;;4974370;28;20263;-86
2023/02/08 03:25:38;;;;;;;52.30;24.13;;;-3.60;99.90;;;;;;4974131;28;20177;-86
2023/02/08 03:28:21;;;;;;;58.90;24.23;;;-3.60;99.90;;;;;;4974256;28;20175;-86
2023/02/08 03:30:53;;;;;;;61.30;25.87;;;-3.70;99.90;;;;;;4973569;28;20182;-85
2023/02/08 03:33:37;;;;;;;62.83;27.07;;;-3.70;99.90;;;;;;4961647;28;20347;-86
2023/02/08 03:36:16;;;;;;;52.20;23.03;;;-3.70;99.90;;;;;;4954950;29;20638;-86
2023/02/08 03:38:44;;;;;;;56.87;25.20;;;-3.70;99.90;;;;;;4954493;29;20204;-86
2023/02/08 03:41:20;;;;;;;55.10;25.13;;;-3.70;99.90;;;;;;4954285;29;20181;-86
2023/02/08 03:43:56;;;;;;;53.20;24.27;;;-3.70;99.90;;;;;;4954864;29;20169;-86
2023/02/08 03:46:33;;;;;;;57.83;25.03;;;-3.70;99.90;;;;;;4954675;29;20196;-86
2023/02/08 03:49:08;;;;;;;55.50;24.53;;;-3.80;99.90;;;;;;4954517;29;20177;-85
2023/02/08 03:51:37;;;;;;;59.80;25.23;;;-3.80;99.90;;;;;;4954733;29;20234;-84
2023/02/08 03:54:09;;;;;;;58.63;26.60;;;-3.80;99.90;;;;;;4954840;29;20190;-86
2023/02/08 03:56:54;;;;;;;58.47;25.80;;;-3.80;99.90;;;;;;4954660;29;20265;-86
2023/02/08 03:59:26;;;;;;;58.47;24.57;;;-3.80;99.90;;;;;;4954421;29;20614;-86
2023/02/08 04:02:01;;;;;;;59.40;24.37;;;-3.80;99.90;;;;;;4954532;28;20234;-85
2023/02/08 04:04:34;;;;;;;53.80;23.57;;;-3.80;99.90;;;;;;4973792;28;20189;-87
2023/02/08 04:07:00;;;;;;;59.93;24.27;;;-3.80;99.90;;;;;;4974014;28;20186;-86
2023/02/08 04:09:25;;;;;;;56.53;24.77;;;-3.80;99.90;;;;;;4973064;28;20280;-86
2023/02/08 04:11:51;;;;;;;60.00;25.40;;;-3.80;99.90;;;;;;4973576;28;20440;-85
2023/02/08 04:14:17;;;;;;;51.90;24.50;;;-3.80;99.90;;;;;;4973774;28;20208;-86
2023/02/08 04:16:42;;;;;;;57.17;24.93;;;-3.80;99.90;;;;;;4973638;28;20181;-86
2023/02/08 04:19:08;;;;;;;51.23;23.40;;;-3.80;99.90;;;;;;4976497;28;20184;-87
2023/02/08 04:21:34;;;;;;;59.07;25.77;;;-3.80;99.90;;;;;;4977367;28;20215;-86
2023/02/08 04:24:00;;;;;;;53.20;23.30;;;-3.80;99.90;;;;;;4977795;28;20188;-86
2023/02/08 04:26:26;;;;;;;57.40;23.77;;;-3.80;99.90;;;;;;4977274;28;20177;-87
2023/02/08 04:28:52;;;;;;;53.00;23.70;;;-3.70;99.90;;;;;;4977140;28;20243;-87
2023/02/08 04:31:17;;;;;;;53.60;24.10;;;-3.80;99.90;;;;;;4977074;28;20190;-86
2023/02/08 04:33:43;;;;;;;53.87;23.83;;;-3.70;99.90;;;;;;4976760;28;20317;-86
2023/02/08 04:36:09;;;;;;;56.50;24.43;;;-3.70;99.90;;;;;;4977392;28;20178;-86
2023/02/08 04:38:35;;;;;;;49.73;23.57;;;-3.70;99.90;;;;;;4976880;28;20239;-87
2023/02/08 04:41:01;;;;;;;56.83;23.63;;;-3.80;99.90;;;;;;4976816;28;20273;-86
2023/02/08 04:43:26;;;;;;;50.87;22.10;;;-3.80;99.90;;;;;;4976960;28;20285;-86
2023/02/08 04:45:52;;;;;;;54.73;24.63;;;-3.80;99.90;;;;;;4977103;28;20530;-86
2023/02/08 04:48:19;;;;;;;49.43;23.33;;;-3.70;99.90;;;;;;4976576;28;20190;-86
2023/02/08 04:50:44;;;;;;;55.43;23.53;;;-3.70;99.90;;;;;;4977101;28;20185;-86
2023/02/08 04:53:10;;;;;;;49.53;23.53;;;-3.80;99.90;;;;;;4976885;28;20673;-86
2023/02/08 04:55:36;;;;;;;50.50;21.87;;;-3.80;99.90;;;;;;4976853;28;20178;-86
2023/02/08 04:58:02;;;;;;;52.40;21.70;;;-3.80;99.90;;;;;;4976844;28;20181;-86
2023/02/08 05:00:28;;;;;;;53.57;23.10;;;-3.80;99.90;;;;;;4976123;28;20235;-86
2023/02/08 05:02:55;;;;;;;51.57;21.90;;;-3.90;99.90;;;;;;4976368;28;20211;-86
2023/02/08 05:05:28;;;;;;;47.73;22.37;;;-3.90;99.90;;;;;;4976456;28;20181;-85
2023/02/08 05:07:54;;;;;;;52.37;21.87;;;-3.90;99.90;;;;;;4975750;28;20596;-86
2023/02/08 05:10:19;;;;;;;53.77;22.47;;;-3.90;99.90;;;;;;4975918;28;20197;-85
2023/02/08 05:12:45;;;;;;;49.93;22.20;;;-3.90;99.90;;;;;;4977472;28;20204;-86
2023/02/08 05:15:11;;;;;;;50.73;22.53;;;-4.00;99.90;;;;;;4976334;28;20181;-86
2023/02/08 05:17:37;;;;;;;51.73;21.97;;;-4.00;99.90;;;;;;4976788;28;20596;-86
2023/02/08 05:20:04;;;;;;;50.30;21.60;;;-4.00;99.90;;;;;;4976385;28;20178;-85
2023/02/08 05:22:31;;;;;;;55.33;23.23;;;-4.10;99.90;;;;;;4975897;28;20220;-86
2023/02/08 05:24:57;;;;;;;48.47;22.73;;;-4.20;99.90;;;;;;4976210;28;20209;-86
2023/02/08 05:27:22;;;;;;;47.57;22.30;;;-4.20;99.90;;;;;;4976177;28;20239;-86
2023/02/08 05:29:48;;;;;;;53.67;23.30;;;-4.30;99.90;;;;;;4975275;28;20518;-85
2023/02/08 05:32:14;;;;;;;47.43;22.83;;;-4.40;99.90;;;;;;4977058;28;20200;-86
2023/02/08 05:34:40;;;;;;;52.97;23.57;;;-4.30;99.90;;;;;;4976274;28;20192;-85
2023/02/08 05:37:06;;;;;;;53.23;22.73;;;-4.30;99.90;;;;;;4975611;28;20212;-85
2023/02/08 05:39:31;;;;;;;53.37;24.27;;;-4.20;99.90;;;;;;4975676;28;20218;-85
2023/02/08 05:41:57;;;;;;;54.30;24.10;;;-4.20;99.90;;;;;;4976047;28;20180;-85
2023/02/08 05:44:23;;;;;;;58.40;23.93;;;-4.20;99.90;;;;;;4976050;28;20191;-85
2023/02/08 05:46:48;;;;;;;53.53;23.67;;;-4.20;99.90;;;;;;4976139;28;20184;-85
2023/02/08 05:49:14;;;;;;;54.17;23.43;;;-4.20;99.90;;;;;;4975067;28;20184;-85
2023/02/08 05:51:40;;;;;;;52.77;22.90;;;-4.10;99.90;;;;;;4975330;28;20177;-86
2023/02/08 05:54:06;;;;;;;46.20;21.77;;;-4.20;99.90;;;;;;4975529;28;20694;-86
2023/02/08 05:56:35;;;;;;;48.57;22.40;;;-4.20;99.90;;;;;;4975273;28;20862;-86
2023/02/08 05:59:02;;;;;;;45.30;21.63;;;-4.30;99.90;;;;;;4975539;28;20240;-85
2023/02/08 06:01:28;;;;;;;52.50;22.43;;;-4.40;99.90;;;;;;4974997;28;20230;-85
2023/02/08 06:03:54;;;;;;;49.10;21.47;;;-4.40;99.90;;;;;;4975523;28;20180;-86
2023/02/08 06:06:20;;;;;;;52.83;23.57;;;-4.30;99.90;;;;;;4972027;28;20205;-85
2023/02/08 06:08:46;;;;;;;53.90;23.37;;;-4.20;99.90;;;;;;4955977;28;20178;-86
2023/02/08 06:11:12;;;;;;;46.13;20.67;;;-4.20;99.90;;;;;;4956086;28;20267;-86
2023/02/08 06:13:38;;;;;;;50.33;21.77;;;-4.20;99.90;;;;;;4956105;28;20218;-86
2023/02/08 06:16:04;;;;;;;49.13;21.90;;;-4.10;99.90;;;;;;4956086;28;20174;-86
2023/02/08 06:18:30;;;;;;;47.97;21.70;;;-4.20;99.90;;;;;;4955890;28;20192;-85
2023/02/08 06:20:56;;;;;;;52.90;21.67;;;-4.10;99.90;;;;;;4955743;28;20303;-85
2023/02/08 06:23:22;;;;;;;48.63;22.13;;;-4.10;99.90;;;;;;4955546;28;20184;-86
2023/02/08 06:25:49;;;;;;;44.73;21.37;;;-4.20;99.90;;;;;;4955967;28;20676;-86
2023/02/08 06:28:15;;;;;;;49.00;22.13;;;-4.30;99.90;;;;;;4956001;29;20212;-85
2023/02/08 06:30:43;;;;;;;51.23;22.40;;;-4.40;99.90;;;;;;4955868;28;20572;-86
2023/02/08 06:33:09;;;;;;;48.33;21.50;;;-4.60;99.90;;;;;;4955614;28;20676;-86
2023/02/08 06:35:34;;;;;;;47.73;22.53;;;-4.60;99.90;;;;;;4955958;28;20185;-86
2023/02/08 06:38:02;;;;;;;53.23;22.17;;;-4.80;99.90;;;;;;4955604;28;20640;-86
2023/02/08 06:40:28;;;;;;;50.00;22.00;;;-4.90;99.90;;;;;;4955414;28;20177;-86
2023/02/08 06:42:54;;;;;;;48.50;21.63;;;-4.90;99.90;;;;;;4955478;28;20249;-85
2023/02/08 06:45:19;;;;;;;55.27;22.37;;;-5.00;99.90;;;;;;4955533;28;20238;-85
2023/02/08 06:47:45;;;;;;;52.90;22.33;;;-5.00;99.90;;;;;;4955510;29;20246;-86
2023/02/08 06:50:11;;;;;;;53.43;21.50;;;-4.90;99.90;;;;;;4962034;28;20611;-86
2023/02/08 06:52:36;;;;;;;52.43;22.30;;;-4.80;99.90;;;;;;4974543;28;20212;-86
2023/02/08 06:55:03;;;;;;;50.87;21.17;;;-4.70;99.90;;;;;;4975890;28;20191;-86
2023/02/08 06:57:28;;;;;;;51.20;21.33;;;-4.60;99.90;;;;;;4974653;28;20262;-86
2023/02/08 06:59:54;;;;;;;45.23;21.17;;;-4.60;99.90;;;;;;4974354;28;20212;-86
2023/02/08 07:02:20;;;;;;;51.10;21.90;;;-4.50;99.90;;;;;;4974727;28;20184;-86
2023/02/08 07:04:47;;;;;;;52.60;23.10;;;-4.50;99.90;;;;;;4974501;28;20180;-86
2023/02/08 07:07:14;;;;;;;50.23;22.07;;;-4.40;99.90;;;;;;4974312;28;20192;-86
2023/02/08 07:09:41;;;;;;;50.47;22.27;;;-4.40;99.90;;;;;;4975669;28;20187;-86
2023/02/08 07:12:07;;;;;;;41.63;20.40;;;-4.40;99.90;;;;;;4974535;28;20260;-86
2023/02/08 07:14:35;;;;;;;49.57;22.17;;;-4.40;99.90;;;;;;4974575;28;20181;-86
2023/02/08 07:17:02;;;;;;;48.87;22.13;;;-4.40;99.90;;;;;;4974447;28;20173;-86
2023/02/08 07:19:28;;;;;;;44.27;21.70;;;-4.40;99.90;;;;;;4974328;28;20201;-86
2023/02/08 07:21:54;;;;;;;51.53;22.83;;;-4.30;99.90;;;;;;4973979;28;20283;-85
2023/02/08 07:24:20;;;;;;;50.00;23.33;;;-4.30;99.90;;;;;;4974280;28;20189;-86
2023/02/08 07:26:46;;;;;;;48.77;20.70;;;-4.30;99.90;;;;;;4974391;28;20177;-86
2023/02/08 07:29:11;;;;;;;43.90;19.13;;;-4.20;99.90;;;;;;4974347;28;20239;-86
2023/02/08 07:31:37;;;;;;;46.47;22.50;;;-4.40;99.90;;;;;;4974254;28;20185;-86
2023/02/08 07:34:03;;;;;;;49.90;22.00;;;-4.40;99.90;;;;;;4974695;28;20220;-86
2023/02/08 07:36:29;;;;;;;52.40;23.63;;;-4.50;99.90;;;;;;4974615;28;20295;-86
2023/02/08 07:38:54;;;;;;;50.63;22.63;;;-4.50;99.90;;;;;;4974056;28;20191;-86
2023/02/08 07:41:20;;;;;;;49.17;21.07;;;-4.60;99.90;;;;;;4974463;28;20563;-86
2023/02/08 07:43:46;;;;;;;60.97;22.73;;;-4.60;99.90;;;;;;4974038;28;20177;-86
2023/02/08 07:46:18;;;;;;;50.50;21.27;;;-4.60;99.90;;;;;;4974104;28;20176;-86
2023/02/08 07:48:44;;;;;;;46.30;21.10;;;-4.60;99.90;;;;;;4973943;28;20187;-87
2023/02/08 07:51:11;;;;;;;49.97;21.50;;;-4.50;99.90;;;;;;4974053;28;20182;-86
2023/02/08 07:53:37;;;;;;;51.97;21.37;;;-4.50;99.90;;;;;;4975613;28;20217;-87
2023/02/08 07:56:04;;;;;;;47.50;21.33;;;-4.40;99.90;;;;;;4978273;28;20616;-86
2023/02/08 07:58:30;;;;;;;55.73;22.17;;;-4.30;99.90;;;;;;4978039;28;20177;-86
2023/02/08 08:00:55;;;;;;;48.33;22.60;;;-4.20;99.90;;;;;;4977521;28;20229;-86
2023/02/08 08:03:21;;;;;;;45.10;21.27;;;-4.10;99.90;;;;;;4977449;28;20276;-87
2023/02/08 08:05:48;;;;;;;46.07;19.47;;;-4.00;99.90;;;;;;4978281;28;20200;-86
2023/02/08 08:08:14;;;;;;;46.83;20.97;;;-4.00;99.90;;;;;;4976862;28;20188;-86
2023/02/08 08:10:40;;;;;;;49.73;22.17;;;-3.90;99.90;;;;;;4977805;28;20244;-86
2023/02/08 08:13:06;;;;;;;58.40;23.40;;;-3.80;99.90;;;;;;4977514;28;20306;-86
2023/02/08 08:15:32;;;;;;;48.97;21.80;;;-3.70;99.90;;;;;;4977539;28;20281;-86
2023/02/08 08:17:58;;;;;;;54.27;23.13;;;-3.70;99.90;;;;;;4977730;28;20168;-87
2023/02/08 08:20:24;;;;;;;45.70;19.67;;;-3.60;99.90;;;;;;4977434;28;20186;-86
2023/02/08 08:22:49;;;;;;;44.50;21.10;;;-3.50;99.90;;;;;;4977149;28;20190;-87
2023/02/08 08:25:15;;;;;;;45.07;19.63;;;-3.40;99.90;;;;;;4977328;28;20281;-87
2023/02/08 08:27:44;;;;;;;45.20;21.57;;;-3.30;99.90;;;;;;4977506;28;20179;-87
2023/02/08 08:30:13;;;;;;;59.20;22.23;;;-3.20;99.90;;;;;;4977692;28;20236;-87
2023/02/08 08:32:39;;;;;;;44.50;20.37;;;-3.10;99.90;;;;;;4977220;28;20249;-87
2023/02/08 08:35:06;;;;;;;48.77;21.87;;;-3.00;99.90;;;;;;4977442;28;20190;-86
2023/02/08 08:37:32;;;;;;;49.30;21.53;;;-2.90;99.90;;;;;;4977070;28;20642;-87
2023/02/08 08:39:58;;;;;;;48.20;21.53;;;-2.80;99.90;;;;;;4977214;28;20513;-87
2023/02/08 08:42:25;;;;;;;47.93;20.50;;;-2.70;99.90;;;;;;4977144;28;20206;-86
2023/02/08 08:44:51;;;;;;;44.97;21.80;;;-2.60;99.90;;;;;;4977324;28;20186;-86
2023/02/08 08:47:17;;;;;;;48.00;21.47;;;-2.50;99.90;;;;;;4977037;28;20172;-85
2023/02/08 08:49:43;;;;;;;49.43;22.83;;;-2.50;99.90;;;;;;4976987;28;20203;-85
2023/02/08 08:52:10;;;;;;;49.07;22.70;;;-2.40;99.90;;;;;;4976771;28;20180;-85
2023/02/08 08:54:35;;;;;;;49.10;22.33;;;-2.30;99.90;;;;;;4977173;28;20642;-86
2023/02/08 08:57:02;;;;;;;47.20;22.47;;;-2.30;99.90;;;;;;4976750;28;20167;-85
2023/02/08 08:59:28;;;;;;;49.07;22.17;;;-2.20;99.90;;;;;;4976673;28;20188;-86
2023/02/08 09:01:53;;;;;;;44.00;22.43;;;-2.10;99.90;;;;;;4976423;28;20230;-85
2023/02/08 09:04:21;;;;;;;46.73;22.40;;;-2.00;99.90;;;;;;4975525;28;20614;-85
2023/02/08 09:06:51;;;;;;;44.00;20.97;;;-2.00;99.90;;;;;;4976851;28;20196;-86
2023/02/08 09:09:18;;;;;;;48.50;22.40;;;-1.90;99.90;;;;;;4976626;28;20604;-86
2023/02/08 09:11:44;;;;;;;40.33;20.90;;;-1.90;99.90;;;;;;4976634;28;20180;-86
2023/02/08 09:14:10;;;;;;;47.93;22.43;;;-1.90;99.90;;;;;;4976527;28;20335;-86
2023/02/08 09:16:38;;;;;;;56.27;24.27;;;-1.80;99.90;;;;;;4976668;28;20195;-85
2023/02/08 09:19:06;;;;;;;58.30;26.97;;;-1.70;99.90;;;;;;4976352;28;20272;-87
2023/02/08 09:21:33;;;;;;;55.37;26.40;;;-1.70;99.90;;;;;;4976629;28;20184;-87
2023/02/08 09:24:00;;;;;;;61.23;24.30;;;-1.60;99.90;;;;;;4976535;28;20188;-86
2023/02/08 09:26:26;;;;;;;48.40;22.67;;;-1.60;99.90;;;;;;4976339;28;20192;-85
2023/02/08 09:28:52;;;;;;;44.83;22.17;;;-1.50;99.90;;;;;;4976347;28;20180;-86
2023/02/08 09:31:23;;;;;;;49.77;24.10;;;-1.50;99.90;;;;;;4977345;28;20176;-86
2023/02/08 09:33:51;;;;;;;45.97;22.63;;;-1.50;99.90;;;;;;4976290;28;20220;-85
2023/02/08 09:36:19;;;;;;;49.80;22.13;;;-1.40;99.90;;;;;;4976136;28;20212;-85
2023/02/08 09:38:48;;;;;;;43.67;22.20;;;-1.40;99.90;;;;;;4975670;28;20187;-85
2023/02/08 09:41:33;;;;;;;84.67;37.13;;;-1.30;99.90;;;;;;4975649;28;20189;-85
2023/02/08 09:44:16;;;;;;;165.77;57.57;;;-1.20;99.90;;;;;;4975937;28;20179;-85
2023/02/08 09:46:56;;;;;;;57.43;26.47;;;-1.10;99.90;;;;;;4977014;28;20173;-87
2023/02/08 09:49:27;;;;;;;50.20;23.47;;;-1.00;99.90;;;;;;4975691;28;20176;-84
2023/02/08 09:51:59;;;;;;;94.30;47.15;;;-0.90;99.90;;;;;;4975268;28;20180;-87
2023/02/08 09:54:35;;;;;;;41.87;22.13;;;-0.90;99.90;;;;;;4975570;28;20448;-85
2023/02/08 09:57:06;;;;;;;46.83;23.60;;;-0.80;99.90;;;;;;4975600;28;20179;-87
2023/02/08 09:59:33;;;;;;;52.93;24.40;;;-0.70;99.90;;;;;;4975384;28;20270;-87
2023/02/08 10:02:16;;;;;;;44.13;22.43;;;-0.60;99.90;;;;;;4975609;28;20606;-85
2023/02/08 10:05:05;;;;;;;42.57;22.50;;;-0.50;99.90;;;;;;4975675;28;20224;-85
2023/02/08 10:07:33;;;;;;;48.63;23.00;;;-0.50;99.90;;;;;;4975378;28;20235;-84
2023/02/08 10:10:06;;;;;;;57.33;27.20;;;-0.40;99.90;;;;;;4975479;28;20228;-85
2023/02/08 10:12:42;;;;;;;45.10;22.97;;;-0.30;99.90;;;;;;4974994;28;20223;-84
2023/02/08 10:15:28;;;;;;;47.37;22.97;;;-0.20;99.90;;;;;;4974930;28;20181;-85
2023/02/08 10:17:57;;;;;;;42.00;20.53;;;-0.10;99.90;;;;;;4975306;28;20184;-85
2023/02/08 10:21:00;;;;;;;45.00;21.53;;;0.00;99.90;;;;;;4974930;28;20185;-85
2023/02/08 10:23:40;;;;;;;40.80;20.93;;;0.10;99.90;;;;;;4975971;28;20255;-85
2023/02/08 10:26:18;;;;;;;39.93;20.63;;;0.10;99.90;;;;;;4975104;28;20195;-86
2023/02/08 10:28:44;;;;;;;40.03;20.23;;;0.20;99.90;;;;;;4974851;28;20215;-86
2023/02/08 10:31:18;;;;;;;36.20;17.23;;;0.30;99.90;;;;;;4974902;28;20177;-85
2023/02/08 10:34:16;;;;;;;20.93;10.13;;;0.40;99.90;;;;;;4975253;28;20265;-86
2023/02/08 10:36:42;;;;;;;17.83;8.40;;;0.70;99.90;;;;;;4976318;28;20620;-85
2023/02/08 10:39:17;;;;;;;12.80;8.20;;;0.90;99.90;;;;;;4974443;28;20260;-86
2023/02/08 10:41:43;;;;;;;14.13;8.40;;;1.20;99.90;;;;;;4974859;28;20187;-86
2023/02/08 10:44:34;;;;;;;11.53;6.93;;;1.40;99.90;;;;;;4974452;28;20612;-85
2023/02/08 10:47:15;;;;;;;16.27;6.90;;;1.70;99.90;;;;;;4974873;28;20275;-86
2023/02/08 10:49:54;;;;;;;14.60;7.43;;;1.90;99.90;;;;;;4975576;28;20167;-85
2023/02/08 10:52:19;;;;;;;13.03;7.03;;;1.90;99.90;;;;;;4972333;28;20230;-85
2023/02/08 10:54:45;;;;;;;13.07;7.00;;;2.00;99.90;;;;;;4967222;28;20231;-87
2023/02/08 10:57:19;;;;;;;13.10;7.50;;;2.00;99.90;;;;;;4974423;28;20587;-86
2023/02/08 10:59:55;;;;;;;14.43;7.63;;;2.10;99.90;;;;;;4970992;28;20538;-86
2023/02/08 11:02:27;;;;;;;11.33;6.50;;;2.20;99.90;;;;;;4972058;28;20643;-86
2023/02/08 11:05:01;;;;;;;12.63;7.17;;;2.20;99.90;;;;;;4974967;28;20212;-86
2023/02/08 11:07:27;;;;;;;12.07;7.00;;;2.30;99.90;;;;;;4973580;28;20185;-87
2023/02/08 11:09:52;;;;;;;13.50;7.20;;;2.30;99.90;;;;;;4975639;28;20247;-86
2023/02/08 11:12:20;;;;;;;14.03;7.97;;;2.40;99.90;;;;;;4975638;28;20299;-87
2023/02/08 11:14:52;;;;;;;16.13;7.63;;;2.40;99.90;;;;;;4974470;28;20187;-87
2023/02/08 11:17:36;;;;;;;14.27;7.57;;;2.50;99.90;;;;;;4974471;28;20219;-87
2023/02/08 11:20:02;;;;;;;11.80;7.03;;;2.60;99.90;;;;;;4974323;28;20177;-86
2023/02/08 11:22:30;;;;;;;15.50;7.17;;;2.60;99.90;;;;;;4974265;28;20267;-87
2023/02/08 11:24:57;;;;;;;13.20;6.83;;;2.70;99.90;;;;;;4974444;28;20248;-86
2023/02/08 11:27:43;;;;;;;15.27;7.60;;;2.70;99.90;;;;;;4973531;28;20184;-86
2023/02/08 11:30:12;;;;;;;14.83;7.77;;;2.80;99.90;;;;;;4974250;28;20187;-87
2023/02/08 11:32:42;;;;;;;13.77;7.40;;;2.80;99.90;;;;;;4974381;28;20239;-87
2023/02/08 11:35:20;;;;;;;13.23;7.00;;;2.90;99.90;;;;;;4974379;28;20283;-87
2023/02/08 11:37:52;;;;;;;15.77;6.97;;;2.90;99.90;;;;;;4973992;28;20226;-86
2023/02/08 11:40:35;;;;;;;11.90;7.13;;;3.00;99.90;;;;;;4973919;28;20189;-87
2023/02/08 11:43:01;;;;;;;11.40;6.00;;;3.00;99.90;;;;;;4974175;28;20235;-87
2023/02/08 11:45:34;;;;;;;10.17;6.13;;;3.10;99.90;;;;;;4974257;28;20195;-87
2023/02/08 11:48:01;;;;;;;12.70;6.23;;;3.20;99.90;;;;;;4974103;28;20184;-87
2023/02/08 11:50:38;;;;;;;11.50;6.10;;;3.20;99.90;;;;;;4974201;28;20200;-86
2023/02/08 11:53:06;;;;;;;13.60;6.10;;;3.30;99.90;;;;;;4973896;28;20216;-87
2023/02/08 11:55:33;;;;;;;11.47;4.93;;;3.40;99.90;;;;;;4974127;28;20187;-86
2023/02/08 11:58:04;;;;;;;8.60;5.00;;;3.30;99.90;;;;;;4974216;28;20632;-87
2023/02/08 12:00:36;;;;;;;12.67;5.70;;;3.30;99.90;;;;;;4973836;28;20735;-86
2023/02/08 12:03:18;;;;;;;10.13;5.37;;;3.40;99.90;;;;;;4973889;28;20176;-86
2023/02/08 12:06:04;;;;;;;10.20;5.37;;;3.50;99.90;;;;;;4974027;28;20288;-87
2023/02/08 12:09:06;;;;;;;8.90;4.60;;;3.50;99.90;;;;;;4973878;28;20185;-87
2023/02/08 12:11:40;;;;;;;9.20;4.87;;;3.50;99.90;;;;;;4975036;28;20161;-85
2023/02/08 12:14:41;;;;;;;11.27;5.07;;;3.50;99.90;;;;;;4973608;28;20660;-87
2023/02/08 12:17:25;;;;;;;11.83;4.93;;;3.60;99.90;;;;;;4966833;28;20271;-86
2023/02/08 12:19:51;;;;;;;8.00;4.20;;;3.60;99.90;;;;;;4973774;28;20180;-86
2023/02/08 12:22:23;;;;;;;7.57;3.57;;;3.70;99.90;;;;;;4973377;28;20188;-85
2023/02/08 12:25:13;;;;;;;7.23;3.70;;;3.70;99.90;;;;;;4973377;28;20188;-86
2023/02/08 12:27:53;;;;;;;9.37;4.07;;;3.70;99.90;;;;;;4973573;28;20173;-85
2023/02/08 12:31:06;;;;;;;7.57;3.70;;;3.70;99.90;;;;;;4974347;28;20264;-86
2023/02/08 12:33:34;;;;;;;7.20;3.80;;;3.80;99.90;;;;;;4933999;29;20205;-86
2023/02/08 12:36:02;;;;;;;8.20;4.30;;;3.80;99.90;;;;;;4918348;29;20178;-86
2023/02/08 12:41:46;;;;;;;7.77;4.13;;;3.80;99.90;;;;;;4978330;28;20184;-86
2023/02/08 12:44:45;;;;;;;8.50;4.23;;;3.80;99.90;;;;;;4977069;28;20184;-85
2023/02/08 12:47:14;;;;;;;7.30;4.50;;;3.80;99.90;;;;;;4976657;28;20192;-85
2023/02/08 12:49:59;;;;;;;9.87;5.37;;;3.80;99.90;;;;;;4976715;28;20184;-86
2023/02/08 12:52:37;;;;;;;10.93;5.77;;;3.90;99.90;;;;;;4976267;28;20212;-85
2023/02/08 12:55:27;;;;;;;13.33;5.90;;;3.90;99.90;;;;;;4976818;28;20179;-85
2023/02/08 12:57:58;;;;;;;13.80;6.77;;;3.90;99.90;;;;;;4976696;28;20228;-85